sensor_id;sensor_type;location;lat;lon;timestamp;P1;durP1;ratioP1;P2;durP2;ratioP2
56319;SDS011;42226;42.382;23.748;2022-08-19T00:01:54;5.15;;;4.15;;
56319;SDS011;42226;42.382;23.748;2022-08-19T00:04:24;6.10;;;4.32;;
56319;SDS011;42226;42.382;23.748;2022-08-19T00:06:55;4.40;;;4.00;;
56319;SDS011;42226;42.382;23.748;2022-08-19T00:09:24;4.28;;;3.88;;
56319;SDS011;42226;42.382;23.748;2022-08-19T00:11:53;4.13;;;3.83;;
56319;SDS011;42226;42.382;23.748;2022-08-19T00:14:22;4.38;;;4.07;;
56319;SDS011;42226;42.382;23.748;2022-08-19T00:16:51;4.72;;;4.10;;
56319;SDS011;42226;42.382;23.748;2022-08-19T00:19:19;4.50;;;4.10;;
56319;SDS011;42226;42.382;23.748;2022-08-19T00:21:47;4.63;;;4.22;;
56319;SDS011;42226;42.382;23.748;2022-08-19T00:24:14;4.40;;;4.00;;
56319;SDS011;42226;42.382;23.748;2022-08-19T00:26:42;4.93;;;4.40;;
56319;SDS011;42226;42.382;23.748;2022-08-19T00:29:13;4.63;;;4.30;;
56319;SDS011;42226;42.382;23.748;2022-08-19T00:31:43;4.50;;;4.10;;
56319;SDS011;42226;42.382;23.748;2022-08-19T00:34:12;6.68;;;4.15;;
56319;SDS011;42226;42.382;23.748;2022-08-19T00:36:41;4.53;;;4.00;;
56319;SDS011;42226;42.382;23.748;2022-08-19T00:39:10;5.20;;;4.65;;
56319;SDS011;42226;42.382;23.748;2022-08-19T00:41:40;4.97;;;4.30;;
56319;SDS011;42226;42.382;23.748;2022-08-19T00:44:09;5.85;;;4.70;;
56319;SDS011;42226;42.382;23.748;2022-08-19T00:46:48;4.82;;;4.15;;
56319;SDS011;42226;42.382;23.748;2022-08-19T00:49:19;4.65;;;4.25;;
56319;SDS011;42226;42.382;23.748;2022-08-19T00:52:09;4.70;;;4.30;;
56319;SDS011;42226;42.382;23.748;2022-08-19T00:54:41;4.50;;;4.20;;
56319;SDS011;42226;42.382;23.748;2022-08-19T00:57:11;5.72;;;4.40;;
56319;SDS011;42226;42.382;23.748;2022-08-19T00:59:42;4.88;;;4.47;;
56319;SDS011;42226;42.382;23.748;2022-08-19T01:02:12;5.45;;;4.55;;
56319;SDS011;42226;42.382;23.748;2022-08-19T01:04:40;6.13;;;4.82;;
56319;SDS011;42226;42.382;23.748;2022-08-19T01:07:08;4.50;;;4.13;;
56319;SDS011;42226;42.382;23.748;2022-08-19T01:09:34;4.95;;;4.55;;
56319;SDS011;42226;42.382;23.748;2022-08-19T01:12:01;5.20;;;4.70;;
56319;SDS011;42226;42.382;23.748;2022-08-19T01:14:28;5.68;;;4.47;;
56319;SDS011;42226;42.382;23.748;2022-08-19T01:16:56;4.82;;;4.40;;
56319;SDS011;42226;42.382;23.748;2022-08-19T01:19:33;6.35;;;4.47;;
56319;SDS011;42226;42.382;23.748;2022-08-19T01:24:45;4.85;;;4.40;;
56319;SDS011;42226;42.382;23.748;2022-08-19T01:27:12;4.80;;;4.40;;
56319;SDS011;42226;42.382;23.748;2022-08-19T01:29:40;4.95;;;4.45;;
56319;SDS011;42226;42.382;23.748;2022-08-19T01:32:10;5.63;;;4.70;;
56319;SDS011;42226;42.382;23.748;2022-08-19T01:34:41;4.82;;;4.35;;
56319;SDS011;42226;42.382;23.748;2022-08-19T01:37:13;5.60;;;4.60;;
56319;SDS011;42226;42.382;23.748;2022-08-19T01:39:40;5.65;;;4.55;;
56319;SDS011;42226;42.382;23.748;2022-08-19T01:42:08;4.82;;;4.30;;
56319;SDS011;42226;42.382;23.748;2022-08-19T01:44:37;5.05;;;4.50;;
56319;SDS011;42226;42.382;23.748;2022-08-19T01:47:06;5.30;;;4.75;;
56319;SDS011;42226;42.382;23.748;2022-08-19T01:49:37;5.00;;;4.53;;
56319;SDS011;42226;42.382;23.748;2022-08-19T01:52:04;4.72;;;4.32;;
56319;SDS011;42226;42.382;23.748;2022-08-19T01:54:31;4.90;;;4.43;;
56319;SDS011;42226;42.382;23.748;2022-08-19T01:57:05;4.90;;;4.50;;
56319;SDS011;42226;42.382;23.748;2022-08-19T01:59:35;5.03;;;4.55;;
56319;SDS011;42226;42.382;23.748;2022-08-19T02:02:04;4.80;;;4.40;;
56319;SDS011;42226;42.382;23.748;2022-08-19T02:04:33;4.47;;;4.00;;
56319;SDS011;42226;42.382;23.748;2022-08-19T02:07:01;5.22;;;4.55;;
56319;SDS011;42226;42.382;23.748;2022-08-19T02:09:28;4.97;;;4.50;;
56319;SDS011;42226;42.382;23.748;2022-08-19T02:11:56;4.72;;;4.32;;
56319;SDS011;42226;42.382;23.748;2022-08-19T02:14:24;4.90;;;4.50;;
56319;SDS011;42226;42.382;23.748;2022-08-19T02:16:50;5.25;;;4.78;;
56319;SDS011;42226;42.382;23.748;2022-08-19T02:19:18;4.40;;;4.00;;
56319;SDS011;42226;42.382;23.748;2022-08-19T02:21:45;5.60;;;4.30;;
56319;SDS011;42226;42.382;23.748;2022-08-19T02:24:13;5.72;;;4.32;;
56319;SDS011;42226;42.382;23.748;2022-08-19T02:26:39;5.65;;;4.63;;
56319;SDS011;42226;42.382;23.748;2022-08-19T02:29:07;5.07;;;4.53;;
56319;SDS011;42226;42.382;23.748;2022-08-19T02:31:33;5.18;;;4.68;;
56319;SDS011;42226;42.382;23.748;2022-08-19T02:34:01;4.82;;;4.38;;
56319;SDS011;42226;42.382;23.748;2022-08-19T02:36:29;4.80;;;4.40;;
56319;SDS011;42226;42.382;23.748;2022-08-19T02:38:56;5.22;;;4.70;;
56319;SDS011;42226;42.382;23.748;2022-08-19T02:41:28;4.88;;;4.47;;
56319;SDS011;42226;42.382;23.748;2022-08-19T02:43:59;4.88;;;4.38;;
56319;SDS011;42226;42.382;23.748;2022-08-19T02:46:30;5.13;;;4.22;;
56319;SDS011;42226;42.382;23.748;2022-08-19T02:49:00;5.85;;;4.53;;
56319;SDS011;42226;42.382;23.748;2022-08-19T02:51:33;4.55;;;4.15;;
56319;SDS011;42226;42.382;23.748;2022-08-19T02:54:04;5.07;;;4.30;;
56319;SDS011;42226;42.382;23.748;2022-08-19T02:56:34;4.43;;;4.03;;
56319;SDS011;42226;42.382;23.748;2022-08-19T02:59:04;5.20;;;4.50;;
56319;SDS011;42226;42.382;23.748;2022-08-19T03:01:35;4.80;;;4.22;;
56319;SDS011;42226;42.382;23.748;2022-08-19T03:04:04;4.82;;;4.40;;
56319;SDS011;42226;42.382;23.748;2022-08-19T03:06:37;5.15;;;4.70;;
56319;SDS011;42226;42.382;23.748;2022-08-19T03:09:07;4.93;;;4.43;;
56319;SDS011;42226;42.382;23.748;2022-08-19T03:11:36;4.82;;;4.20;;
56319;SDS011;42226;42.382;23.748;2022-08-19T03:14:04;4.93;;;4.22;;
56319;SDS011;42226;42.382;23.748;2022-08-19T03:16:34;5.10;;;4.60;;
56319;SDS011;42226;42.382;23.748;2022-08-19T03:21:36;4.68;;;4.28;;
56319;SDS011;42226;42.382;23.748;2022-08-19T03:24:05;4.80;;;4.30;;
56319;SDS011;42226;42.382;23.748;2022-08-19T03:26:37;5.00;;;4.60;;
56319;SDS011;42226;42.382;23.748;2022-08-19T03:29:07;4.80;;;4.40;;
56319;SDS011;42226;42.382;23.748;2022-08-19T03:31:38;4.88;;;4.47;;
56319;SDS011;42226;42.382;23.748;2022-08-19T03:34:08;5.40;;;4.50;;
56319;SDS011;42226;42.382;23.748;2022-08-19T03:36:37;4.85;;;4.35;;
56319;SDS011;42226;42.382;23.748;2022-08-19T03:39:05;5.20;;;4.70;;
56319;SDS011;42226;42.382;23.748;2022-08-19T03:41:37;4.63;;;4.22;;
56319;SDS011;42226;42.382;23.748;2022-08-19T03:44:08;5.30;;;3.95;;
56319;SDS011;42226;42.382;23.748;2022-08-19T03:46:36;5.15;;;4.60;;
56319;SDS011;42226;42.382;23.748;2022-08-19T03:49:04;4.53;;;4.13;;
56319;SDS011;42226;42.382;23.748;2022-08-19T03:51:36;6.40;;;4.63;;
56319;SDS011;42226;42.382;23.748;2022-08-19T03:54:06;5.30;;;4.80;;
56319;SDS011;42226;42.382;23.748;2022-08-19T03:56:37;5.10;;;4.60;;
56319;SDS011;42226;42.382;23.748;2022-08-19T03:59:07;4.85;;;4.45;;
56319;SDS011;42226;42.382;23.748;2022-08-19T04:01:39;6.93;;;4.60;;
56319;SDS011;42226;42.382;23.748;2022-08-19T04:04:06;4.75;;;4.40;;
56319;SDS011;42226;42.382;23.748;2022-08-19T04:06:34;5.07;;;4.60;;
56319;SDS011;42226;42.382;23.748;2022-08-19T04:09:05;5.00;;;4.50;;
56319;SDS011;42226;42.382;23.748;2022-08-19T04:11:38;5.20;;;4.70;;
56319;SDS011;42226;42.382;23.748;2022-08-19T04:14:13;5.93;;;4.10;;
56319;SDS011;42226;42.382;23.748;2022-08-19T04:16:46;4.40;;;4.00;;
56319;SDS011;42226;42.382;23.748;2022-08-19T04:19:15;4.72;;;4.25;;
56319;SDS011;42226;42.382;23.748;2022-08-19T04:21:47;6.93;;;4.70;;
56319;SDS011;42226;42.382;23.748;2022-08-19T04:24:18;4.70;;;4.20;;
56319;SDS011;42226;42.382;23.748;2022-08-19T04:26:46;4.47;;;4.07;;
56319;SDS011;42226;42.382;23.748;2022-08-19T04:29:18;4.80;;;3.83;;
56319;SDS011;42226;42.382;23.748;2022-08-19T04:31:49;4.93;;;4.30;;
56319;SDS011;42226;42.382;23.748;2022-08-19T04:34:19;4.60;;;4.20;;
56319;SDS011;42226;42.382;23.748;2022-08-19T04:36:49;4.57;;;3.95;;
56319;SDS011;42226;42.382;23.748;2022-08-19T04:39:20;4.60;;;4.20;;
56319;SDS011;42226;42.382;23.748;2022-08-19T04:42:14;4.82;;;4.35;;
56319;SDS011;42226;42.382;23.748;2022-08-19T04:45:01;4.65;;;4.25;;
56319;SDS011;42226;42.382;23.748;2022-08-19T04:47:29;4.10;;;3.80;;
56319;SDS011;42226;42.382;23.748;2022-08-19T04:49:57;5.30;;;4.05;;
56319;SDS011;42226;42.382;23.748;2022-08-19T04:52:25;5.13;;;4.30;;
56319;SDS011;42226;42.382;23.748;2022-08-19T04:54:52;5.53;;;5.03;;
56319;SDS011;42226;42.382;23.748;2022-08-19T04:57:20;4.90;;;4.20;;
56319;SDS011;42226;42.382;23.748;2022-08-19T04:59:48;4.43;;;3.97;;
56319;SDS011;42226;42.382;23.748;2022-08-19T05:02:19;5.95;;;4.35;;
56319;SDS011;42226;42.382;23.748;2022-08-19T05:04:48;4.50;;;3.90;;
56319;SDS011;42226;42.382;23.748;2022-08-19T05:07:16;4.50;;;3.67;;
56319;SDS011;42226;42.382;23.748;2022-08-19T05:09:43;4.32;;;3.92;;
56319;SDS011;42226;42.382;23.748;2022-08-19T05:12:11;5.53;;;4.03;;
56319;SDS011;42226;42.382;23.748;2022-08-19T05:14:38;4.25;;;3.90;;
56319;SDS011;42226;42.382;23.748;2022-08-19T05:17:05;4.75;;;4.35;;
56319;SDS011;42226;42.382;23.748;2022-08-19T05:19:32;5.90;;;4.38;;
56319;SDS011;42226;42.382;23.748;2022-08-19T05:22:18;5.22;;;4.03;;
56319;SDS011;42226;42.382;23.748;2022-08-19T05:25:07;4.82;;;4.40;;
56319;SDS011;42226;42.382;23.748;2022-08-19T05:27:38;4.40;;;3.97;;
56319;SDS011;42226;42.382;23.748;2022-08-19T05:30:06;5.10;;;4.15;;
56319;SDS011;42226;42.382;23.748;2022-08-19T05:32:35;5.47;;;4.35;;
56319;SDS011;42226;42.382;23.748;2022-08-19T05:35:02;5.15;;;4.05;;
56319;SDS011;42226;42.382;23.748;2022-08-19T05:37:31;4.57;;;4.18;;
56319;SDS011;42226;42.382;23.748;2022-08-19T05:39:58;4.60;;;4.20;;
56319;SDS011;42226;42.382;23.748;2022-08-19T05:42:25;4.85;;;4.35;;
56319;SDS011;42226;42.382;23.748;2022-08-19T05:44:53;5.38;;;4.28;;
56319;SDS011;42226;42.382;23.748;2022-08-19T05:47:21;4.32;;;3.90;;
56319;SDS011;42226;42.382;23.748;2022-08-19T05:49:49;4.20;;;3.80;;
56319;SDS011;42226;42.382;23.748;2022-08-19T05:52:16;5.93;;;4.03;;
56319;SDS011;42226;42.382;23.748;2022-08-19T05:54:44;4.70;;;4.30;;
56319;SDS011;42226;42.382;23.748;2022-08-19T05:57:13;4.18;;;3.78;;
56319;SDS011;42226;42.382;23.748;2022-08-19T05:59:41;4.20;;;3.90;;
56319;SDS011;42226;42.382;23.748;2022-08-19T06:02:10;4.72;;;4.15;;
56319;SDS011;42226;42.382;23.748;2022-08-19T06:04:39;4.63;;;3.75;;
56319;SDS011;42226;42.382;23.748;2022-08-19T06:07:08;4.22;;;3.90;;
56319;SDS011;42226;42.382;23.748;2022-08-19T06:09:35;5.05;;;3.92;;
56319;SDS011;42226;42.382;23.748;2022-08-19T06:12:03;4.50;;;4.10;;
56319;SDS011;42226;42.382;23.748;2022-08-19T06:14:32;4.70;;;4.13;;
56319;SDS011;42226;42.382;23.748;2022-08-19T06:17:00;4.00;;;3.60;;
56319;SDS011;42226;42.382;23.748;2022-08-19T06:19:29;5.38;;;4.10;;
56319;SDS011;42226;42.382;23.748;2022-08-19T06:21:57;6.32;;;3.90;;
56319;SDS011;42226;42.382;23.748;2022-08-19T06:24:27;5.38;;;4.30;;
56319;SDS011;42226;42.382;23.748;2022-08-19T06:26:56;4.45;;;4.05;;
56319;SDS011;42226;42.382;23.748;2022-08-19T06:29:25;3.90;;;3.60;;
56319;SDS011;42226;42.382;23.748;2022-08-19T06:38:18;8.75;;;4.07;;
56319;SDS011;42226;42.382;23.748;2022-08-19T08:15:22;5.72;;;3.50;;
56319;SDS011;42226;42.382;23.748;2022-08-19T08:17:49;3.90;;;3.55;;
56319;SDS011;42226;42.382;23.748;2022-08-19T08:56:12;5.05;;;3.55;;
56319;SDS011;42226;42.382;23.748;2022-08-19T12:21:06;5.75;;;3.60;;
56319;SDS011;42226;42.382;23.748;2022-08-19T12:23:35;4.72;;;3.30;;
56319;SDS011;42226;42.382;23.748;2022-08-19T12:29:43;4.13;;;3.55;;
56319;SDS011;42226;42.382;23.748;2022-08-19T12:36:08;3.50;;;3.20;;
56319;SDS011;42226;42.382;23.748;2022-08-19T13:31:07;6.45;;;3.50;;
56319;SDS011;42226;42.382;23.748;2022-08-19T13:33:53;3.97;;;3.58;;
56319;SDS011;42226;42.382;23.748;2022-08-19T13:36:19;4.28;;;3.60;;
56319;SDS011;42226;42.382;23.748;2022-08-19T13:38:46;4.90;;;4.30;;
56319;SDS011;42226;42.382;23.748;2022-08-19T13:41:12;6.43;;;3.88;;
56319;SDS011;42226;42.382;23.748;2022-08-19T13:43:39;4.07;;;3.67;;
56319;SDS011;42226;42.382;23.748;2022-08-19T13:46:09;4.57;;;3.50;;
56319;SDS011;42226;42.382;23.748;2022-08-19T13:48:39;5.70;;;4.03;;
56319;SDS011;42226;42.382;23.748;2022-08-19T13:51:08;4.45;;;3.75;;
56319;SDS011;42226;42.382;23.748;2022-08-19T13:53:39;4.53;;;3.38;;
56319;SDS011;42226;42.382;23.748;2022-08-19T13:56:09;4.65;;;3.50;;
56319;SDS011;42226;42.382;23.748;2022-08-19T13:58:39;7.57;;;3.60;;
56319;SDS011;42226;42.382;23.748;2022-08-19T14:01:06;5.00;;;3.55;;
56319;SDS011;42226;42.382;23.748;2022-08-19T14:03:34;4.32;;;3.47;;
56319;SDS011;42226;42.382;23.748;2022-08-19T14:06:01;3.97;;;3.58;;
56319;SDS011;42226;42.382;23.748;2022-08-19T14:08:28;4.22;;;3.70;;
56319;SDS011;42226;42.382;23.748;2022-08-19T14:10:57;4.35;;;3.70;;
56319;SDS011;42226;42.382;23.748;2022-08-19T14:13:24;5.22;;;3.53;;
56319;SDS011;42226;42.382;23.748;2022-08-19T14:15:51;5.15;;;4.05;;
56319;SDS011;42226;42.382;23.748;2022-08-19T14:18:18;3.88;;;3.45;;
56319;SDS011;42226;42.382;23.748;2022-08-19T14:20:45;5.95;;;3.40;;
56319;SDS011;42226;42.382;23.748;2022-08-19T14:23:11;6.28;;;3.50;;
56319;SDS011;42226;42.382;23.748;2022-08-19T14:25:38;5.13;;;3.33;;
56319;SDS011;42226;42.382;23.748;2022-08-19T14:28:05;4.97;;;3.60;;
56319;SDS011;42226;42.382;23.748;2022-08-19T14:30:33;5.10;;;3.45;;
56319;SDS011;42226;42.382;23.748;2022-08-19T14:33:03;6.80;;;3.42;;
56319;SDS011;42226;42.382;23.748;2022-08-19T14:35:31;6.30;;;3.65;;
56319;SDS011;42226;42.382;23.748;2022-08-19T14:37:59;4.95;;;3.75;;
56319;SDS011;42226;42.382;23.748;2022-08-19T14:40:30;5.00;;;3.50;;
56319;SDS011;42226;42.382;23.748;2022-08-19T14:42:58;4.15;;;3.65;;
56319;SDS011;42226;42.382;23.748;2022-08-19T14:45:30;5.60;;;3.92;;
56319;SDS011;42226;42.382;23.748;2022-08-19T14:47:59;5.50;;;4.05;;
56319;SDS011;42226;42.382;23.748;2022-08-19T14:50:26;5.40;;;3.90;;
56319;SDS011;42226;42.382;23.748;2022-08-19T14:53:00;4.72;;;3.70;;
56319;SDS011;42226;42.382;23.748;2022-08-19T14:55:31;5.25;;;3.90;;
56319;SDS011;42226;42.382;23.748;2022-08-19T14:57:58;4.78;;;3.83;;
56319;SDS011;42226;42.382;23.748;2022-08-19T15:00:25;5.30;;;3.78;;
56319;SDS011;42226;42.382;23.748;2022-08-19T15:02:52;5.07;;;4.03;;
56319;SDS011;42226;42.382;23.748;2022-08-19T15:05:19;4.65;;;3.58;;
56319;SDS011;42226;42.382;23.748;2022-08-19T15:07:46;4.15;;;3.72;;
56319;SDS011;42226;42.382;23.748;2022-08-19T15:10:13;5.47;;;4.10;;
56319;SDS011;42226;42.382;23.748;2022-08-19T15:12:41;5.88;;;4.15;;
56319;SDS011;42226;42.382;23.748;2022-08-19T15:15:08;4.45;;;4.05;;
56319;SDS011;42226;42.382;23.748;2022-08-19T15:17:39;4.05;;;3.65;;
56319;SDS011;42226;42.382;23.748;2022-08-19T15:20:07;4.82;;;3.92;;
56319;SDS011;42226;42.382;23.748;2022-08-19T15:22:35;5.22;;;3.50;;
56319;SDS011;42226;42.382;23.748;2022-08-19T15:25:03;5.25;;;3.40;;
56319;SDS011;42226;42.382;23.748;2022-08-19T15:27:31;5.05;;;3.70;;
56319;SDS011;42226;42.382;23.748;2022-08-19T15:29:59;4.40;;;3.40;;
56319;SDS011;42226;42.382;23.748;2022-08-19T15:32:26;5.45;;;4.10;;
56319;SDS011;42226;42.382;23.748;2022-08-19T15:34:53;5.88;;;3.88;;
56319;SDS011;42226;42.382;23.748;2022-08-19T15:37:20;4.78;;;3.63;;
56319;SDS011;42226;42.382;23.748;2022-08-19T15:39:48;4.07;;;3.60;;
56319;SDS011;42226;42.382;23.748;2022-08-19T15:42:15;4.65;;;3.75;;
56319;SDS011;42226;42.382;23.748;2022-08-19T15:44:42;5.82;;;3.85;;
56319;SDS011;42226;42.382;23.748;2022-08-19T15:47:08;5.88;;;3.97;;
56319;SDS011;42226;42.382;23.748;2022-08-19T15:49:35;8.77;;;3.83;;
56319;SDS011;42226;42.382;23.748;2022-08-19T15:52:02;4.53;;;4.10;;
56319;SDS011;42226;42.382;23.748;2022-08-19T15:54:29;4.18;;;3.78;;
56319;SDS011;42226;42.382;23.748;2022-08-19T15:56:56;7.35;;;3.88;;
56319;SDS011;42226;42.382;23.748;2022-08-19T15:59:41;5.05;;;3.63;;
56319;SDS011;42226;42.382;23.748;2022-08-19T16:05:12;6.15;;;3.60;;
56319;SDS011;42226;42.382;23.748;2022-08-19T16:08:02;4.35;;;3.70;;
56319;SDS011;42226;42.382;23.748;2022-08-19T16:10:29;5.30;;;3.88;;
56319;SDS011;42226;42.382;23.748;2022-08-19T16:12:56;7.60;;;3.97;;
56319;SDS011;42226;42.382;23.748;2022-08-19T16:15:24;6.43;;;4.10;;
56319;SDS011;42226;42.382;23.748;2022-08-19T16:17:55;6.78;;;4.13;;
56319;SDS011;42226;42.382;23.748;2022-08-19T16:20:22;5.63;;;4.05;;
56319;SDS011;42226;42.382;23.748;2022-08-19T16:22:51;5.18;;;3.97;;
56319;SDS011;42226;42.382;23.748;2022-08-19T16:25:18;7.50;;;4.45;;
56319;SDS011;42226;42.382;23.748;2022-08-19T16:27:45;7.13;;;4.35;;
56319;SDS011;42226;42.382;23.748;2022-08-19T16:30:12;5.97;;;3.90;;
56319;SDS011;42226;42.382;23.748;2022-08-19T16:32:41;5.03;;;4.05;;
56319;SDS011;42226;42.382;23.748;2022-08-19T16:35:09;4.50;;;3.70;;
56319;SDS011;42226;42.382;23.748;2022-08-19T16:37:36;4.85;;;4.45;;
56319;SDS011;42226;42.382;23.748;2022-08-19T16:40:03;7.55;;;4.15;;
56319;SDS011;42226;42.382;23.748;2022-08-19T16:42:33;13.50;;;5.00;;
56319;SDS011;42226;42.382;23.748;2022-08-19T16:45:00;4.88;;;4.03;;
56319;SDS011;42226;42.382;23.748;2022-08-19T16:47:28;5.55;;;4.30;;
56319;SDS011;42226;42.382;23.748;2022-08-19T16:49:55;4.70;;;4.30;;
56319;SDS011;42226;42.382;23.748;2022-08-19T16:52:21;17.35;;;4.95;;
56319;SDS011;42226;42.382;23.748;2022-08-19T16:54:51;8.32;;;4.80;;
56319;SDS011;42226;42.382;23.748;2022-08-19T16:57:18;6.30;;;4.53;;
56319;SDS011;42226;42.382;23.748;2022-08-19T16:59:44;6.25;;;4.55;;
56319;SDS011;42226;42.382;23.748;2022-08-19T17:02:11;9.45;;;4.60;;
56319;SDS011;42226;42.382;23.748;2022-08-19T17:04:38;19.88;;;5.03;;
56319;SDS011;42226;42.382;23.748;2022-08-19T17:07:05;7.95;;;4.68;;
56319;SDS011;42226;42.382;23.748;2022-08-19T17:09:35;8.20;;;4.78;;
56319;SDS011;42226;42.382;23.748;2022-08-19T17:12:02;5.78;;;4.53;;
56319;SDS011;42226;42.382;23.748;2022-08-19T17:14:29;6.43;;;4.35;;
56319;SDS011;42226;42.382;23.748;2022-08-19T17:16:56;4.70;;;4.07;;
56319;SDS011;42226;42.382;23.748;2022-08-19T17:19:23;15.35;;;5.00;;
56319;SDS011;42226;42.382;23.748;2022-08-19T17:21:50;5.10;;;4.60;;
56319;SDS011;42226;42.382;23.748;2022-08-19T17:24:17;4.70;;;4.30;;
56319;SDS011;42226;42.382;23.748;2022-08-19T17:26:43;4.90;;;4.50;;
56319;SDS011;42226;42.382;23.748;2022-08-19T17:29:10;6.50;;;4.68;;
56319;SDS011;42226;42.382;23.748;2022-08-19T17:31:38;5.78;;;4.57;;
56319;SDS011;42226;42.382;23.748;2022-08-19T17:34:05;6.68;;;4.50;;
56319;SDS011;42226;42.382;23.748;2022-08-19T17:36:32;5.10;;;4.07;;
56319;SDS011;42226;42.382;23.748;2022-08-19T17:39:00;7.25;;;4.45;;
56319;SDS011;42226;42.382;23.748;2022-08-19T17:41:28;7.82;;;4.90;;
56319;SDS011;42226;42.382;23.748;2022-08-19T17:43:58;5.18;;;4.68;;
56319;SDS011;42226;42.382;23.748;2022-08-19T17:46:25;5.90;;;4.50;;
56319;SDS011;42226;42.382;23.748;2022-08-19T17:48:54;4.95;;;4.45;;
56319;SDS011;42226;42.382;23.748;2022-08-19T17:53:58;6.35;;;4.60;;
56319;SDS011;42226;42.382;23.748;2022-08-19T17:56:25;5.07;;;4.30;;
56319;SDS011;42226;42.382;23.748;2022-08-19T17:58:55;10.32;;;5.30;;
56319;SDS011;42226;42.382;23.748;2022-08-19T18:01:22;7.57;;;5.38;;
56319;SDS011;42226;42.382;23.748;2022-08-19T18:03:49;5.38;;;4.80;;
56319;SDS011;42226;42.382;23.748;2022-08-19T18:06:16;5.72;;;4.53;;
56319;SDS011;42226;42.382;23.748;2022-08-19T18:08:44;5.20;;;4.80;;
56319;SDS011;42226;42.382;23.748;2022-08-19T18:11:13;5.90;;;4.78;;
56319;SDS011;42226;42.382;23.748;2022-08-19T18:13:41;6.97;;;5.03;;
56319;SDS011;42226;42.382;23.748;2022-08-19T18:16:08;5.65;;;4.80;;
56319;SDS011;42226;42.382;23.748;2022-08-19T18:18:39;5.55;;;4.53;;
56319;SDS011;42226;42.382;23.748;2022-08-19T18:21:08;5.07;;;4.63;;
56319;SDS011;42226;42.382;23.748;2022-08-19T18:23:35;5.85;;;5.28;;
56319;SDS011;42226;42.382;23.748;2022-08-19T18:26:03;7.00;;;4.90;;
56319;SDS011;42226;42.382;23.748;2022-08-19T18:28:30;9.63;;;4.80;;
56319;SDS011;42226;42.382;23.748;2022-08-19T18:30:57;7.28;;;5.25;;
56319;SDS011;42226;42.382;23.748;2022-08-19T18:33:26;5.65;;;5.15;;
56319;SDS011;42226;42.382;23.748;2022-08-19T18:35:53;5.50;;;5.00;;
56319;SDS011;42226;42.382;23.748;2022-08-19T18:38:20;5.60;;;4.95;;
56319;SDS011;42226;42.382;23.748;2022-08-19T18:41:06;6.88;;;4.97;;
56319;SDS011;42226;42.382;23.748;2022-08-19T18:43:52;5.50;;;5.00;;
56319;SDS011;42226;42.382;23.748;2022-08-19T18:46:38;6.80;;;5.05;;
56319;SDS011;42226;42.382;23.748;2022-08-19T18:49:24;6.22;;;5.03;;
56319;SDS011;42226;42.382;23.748;2022-08-19T18:51:56;5.85;;;4.90;;
56319;SDS011;42226;42.382;23.748;2022-08-19T18:54:25;6.35;;;4.93;;
56319;SDS011;42226;42.382;23.748;2022-08-19T18:56:52;5.40;;;4.90;;
56319;SDS011;42226;42.382;23.748;2022-08-19T18:59:22;5.70;;;4.60;;
56319;SDS011;42226;42.382;23.748;2022-08-19T19:01:52;7.00;;;5.80;;
56319;SDS011;42226;42.382;23.748;2022-08-19T19:04:27;5.93;;;5.35;;
56319;SDS011;42226;42.382;23.748;2022-08-19T19:06:59;6.72;;;5.40;;
56319;SDS011;42226;42.382;23.748;2022-08-19T19:09:26;6.53;;;4.97;;
56319;SDS011;42226;42.382;23.748;2022-08-19T19:11:55;7.35;;;5.65;;
56319;SDS011;42226;42.382;23.748;2022-08-19T19:14:30;5.95;;;5.32;;
56319;SDS011;42226;42.382;23.748;2022-08-19T19:17:01;5.72;;;5.10;;
56319;SDS011;42226;42.382;23.748;2022-08-19T19:19:35;8.30;;;6.05;;
56319;SDS011;42226;42.382;23.748;2022-08-19T19:22:07;5.60;;;5.10;;
56319;SDS011;42226;42.382;23.748;2022-08-19T19:24:38;9.25;;;5.15;;
56319;SDS011;42226;42.382;23.748;2022-08-19T19:27:09;5.88;;;5.30;;
56319;SDS011;42226;42.382;23.748;2022-08-19T19:29:38;6.15;;;5.55;;
56319;SDS011;42226;42.382;23.748;2022-08-19T19:32:09;7.97;;;5.70;;
56319;SDS011;42226;42.382;23.748;2022-08-19T19:34:51;6.00;;;5.40;;
56319;SDS011;42226;42.382;23.748;2022-08-19T19:37:18;7.15;;;5.78;;
56319;SDS011;42226;42.382;23.748;2022-08-19T19:39:46;6.82;;;5.55;;
56319;SDS011;42226;42.382;23.748;2022-08-19T19:42:18;5.95;;;5.35;;
56319;SDS011;42226;42.382;23.748;2022-08-19T19:44:51;6.57;;;5.53;;
56319;SDS011;42226;42.382;23.748;2022-08-19T19:47:20;6.68;;;5.80;;
56319;SDS011;42226;42.382;23.748;2022-08-19T19:49:48;6.32;;;5.70;;
56319;SDS011;42226;42.382;23.748;2022-08-19T19:52:15;5.60;;;5.10;;
56319;SDS011;42226;42.382;23.748;2022-08-19T19:54:43;6.13;;;5.53;;
56319;SDS011;42226;42.382;23.748;2022-08-19T19:57:11;6.28;;;5.68;;
56319;SDS011;42226;42.382;23.748;2022-08-19T19:59:39;7.03;;;5.57;;
56319;SDS011;42226;42.382;23.748;2022-08-19T20:02:08;5.65;;;5.03;;
56319;SDS011;42226;42.382;23.748;2022-08-19T20:04:36;6.65;;;6.05;;
56319;SDS011;42226;42.382;23.748;2022-08-19T20:07:03;8.70;;;5.50;;
56319;SDS011;42226;42.382;23.748;2022-08-19T20:09:30;6.88;;;6.25;;
56319;SDS011;42226;42.382;23.748;2022-08-19T20:11:56;6.13;;;5.57;;
56319;SDS011;42226;42.382;23.748;2022-08-19T20:14:24;8.30;;;5.43;;
56319;SDS011;42226;42.382;23.748;2022-08-19T20:17:00;7.20;;;5.53;;
56319;SDS011;42226;42.382;23.748;2022-08-19T20:19:28;5.90;;;5.32;;
56319;SDS011;42226;42.382;23.748;2022-08-19T20:22:01;6.80;;;5.93;;
56319;SDS011;42226;42.382;23.748;2022-08-19T20:24:32;8.57;;;5.40;;
56319;SDS011;42226;42.382;23.748;2022-08-19T20:27:01;10.65;;;5.50;;
56319;SDS011;42226;42.382;23.748;2022-08-19T20:29:28;8.15;;;5.60;;
56319;SDS011;42226;42.382;23.748;2022-08-19T20:31:56;5.90;;;5.40;;
56319;SDS011;42226;42.382;23.748;2022-08-19T20:34:23;5.93;;;5.32;;
56319;SDS011;42226;42.382;23.748;2022-08-19T20:36:50;6.32;;;5.40;;
56319;SDS011;42226;42.382;23.748;2022-08-19T20:39:17;5.65;;;5.15;;
56319;SDS011;42226;42.382;23.748;2022-08-19T20:41:43;7.22;;;5.10;;
56319;SDS011;42226;42.382;23.748;2022-08-19T20:44:10;6.03;;;5.53;;
56319;SDS011;42226;42.382;23.748;2022-08-19T20:46:37;5.82;;;5.32;;
56319;SDS011;42226;42.382;23.748;2022-08-19T20:49:04;6.70;;;5.30;;
56319;SDS011;42226;42.382;23.748;2022-08-19T20:51:31;6.40;;;5.30;;
56319;SDS011;42226;42.382;23.748;2022-08-19T20:53:58;7.68;;;6.05;;
56319;SDS011;42226;42.382;23.748;2022-08-19T20:56:25;7.28;;;5.28;;
56319;SDS011;42226;42.382;23.748;2022-08-19T20:58:55;5.90;;;5.40;;
56319;SDS011;42226;42.382;23.748;2022-08-19T21:01:22;6.07;;;5.43;;
56319;SDS011;42226;42.382;23.748;2022-08-19T21:03:48;6.85;;;5.45;;
56319;SDS011;42226;42.382;23.748;2022-08-19T21:06:16;7.03;;;5.53;;
56319;SDS011;42226;42.382;23.748;2022-08-19T21:08:43;6.50;;;5.78;;
56319;SDS011;42226;42.382;23.748;2022-08-19T21:11:11;6.65;;;5.78;;
56319;SDS011;42226;42.382;23.748;2022-08-19T21:13:38;7.38;;;5.32;;
56319;SDS011;42226;42.382;23.748;2022-08-19T21:16:05;7.43;;;5.70;;
56319;SDS011;42226;42.382;23.748;2022-08-19T21:18:32;6.05;;;5.55;;
56319;SDS011;42226;42.382;23.748;2022-08-19T21:20:59;8.07;;;6.00;;
56319;SDS011;42226;42.382;23.748;2022-08-19T21:23:27;6.80;;;5.47;;
56319;SDS011;42226;42.382;23.748;2022-08-19T21:25:55;6.63;;;5.90;;
56319;SDS011;42226;42.382;23.748;2022-08-19T21:28:24;6.20;;;5.57;;
56319;SDS011;42226;42.382;23.748;2022-08-19T21:30:53;7.53;;;6.00;;
56319;SDS011;42226;42.382;23.748;2022-08-19T21:33:25;7.15;;;5.50;;
56319;SDS011;42226;42.382;23.748;2022-08-19T21:35:54;5.78;;;5.20;;